*** De regenmeter is hersteld ! ***

Webcam Zuid-West  Webcam Zuid-West


Apparatuur in gebruik:

Peet Bros Ultimeter 2100


METAR rapporten vliegvelden

   
EBBR - Brussels International Airport, Belgium
Afstand tot: W 14 km
Gewijzigd: 18-04-2024 13:20
Licht bewolkt  
Licht bewolkt  
   Wind: NW 11.1 km/h
Wind: NW 11.1 km/h
Temperatuur: 10°C
Voelt als: 8°C
Dauwpunt: 2°C
Vochtigheid: 58%
Barometer: 1021 hPa
Bewolking: Licht bewolkt
Zicht: meer dan 10 km
Bewolking: Licht bewolkt 4000 ft
EBBR 181120Z 32006KT 9999 FEW040 10/02 Q1021 NOSIG
EBBE - Beauvechain (Bevekom), Belgium
Afstand tot: ZZO 17 km
Gewijzigd: 18-04-2024 13:25
Gedeeltelijk bewolkt  
Gedeeltelijk bewolkt  
   Wind: Noorden 11.1 km/h
Wind: Noorden 11.1 km/h
Temperatuur: 9°C
Voelt als: 7°C
Dauwpunt: 2°C
Vochtigheid: 62%
Barometer: 1021 hPa
Bewolking: Gedeeltelijk bewolkt
Zicht: meer dan 10 km
Bewolking: Licht bewolkt 4000 ft,
Gedeeltelijk bewolkt 5500 ft
EBBE 181125Z 01006KT 9999 FEW040 SCT055 09/02 Q1021 BLU BLU
EBDT - Schaffen, Belgium
Afstand tot: ONO 29 km
Gewijzigd: 18-04-2024 13:25
Gedeeltelijk bewolkt  
Gedeeltelijk bewolkt  
   Wind: Noorden 11.1 km/h
Wind: Noorden 11.1 km/h
Temperatuur: 10°C
Voelt als: 8°C
Dauwpunt: 2°C
Vochtigheid: 58%
Barometer: 1021 hPa
Bewolking: Gedeeltelijk bewolkt
Zicht: meer dan 10 km
Bewolking: Gedeeltelijk bewolkt 3500 ft
EBDT 181125Z 01006KT 9999 SCT035 10/02 Q1021 BLU BLU
EBAW - Antwerp/Deurne, Belgium
Afstand tot: NNW 38 km
Gewijzigd: 18-04-2024 13:50
Licht bewolkt  
Licht bewolkt  
   Wind: WNW 13 km/h
Wind: WNW 13 km/h
Temperatuur: 10°C
Voelt als: 8°C
Dauwpunt: 2°C
Vochtigheid: 58%
Bewolking: Licht bewolkt
Zicht: meer dan 10 km
Bewolking: Licht bewolkt 3500 ft
EBAW 181150Z 30007KT 260V340 9999 FEW035 10/02 Q102
EBCI - Charleroi/Gosselies, Belgium
Afstand tot: ZZW 51 km
Gewijzigd: 18-04-2024 13:50
Licht bewolkt  
Licht bewolkt  
   Wind: Noorden 7.4 km/h
Wind: Noorden 7.4 km/h
Temperatuur: 9°C
Voelt als: 8°C
Dauwpunt: 0°C
Vochtigheid: 54%
Barometer: 1021 hPa
Bewolking: Licht bewolkt
Zicht: meer dan 10 km
Bewolking: Licht bewolkt 3600 ft
EBCI 181150Z 01004KT 310V050 9999 FEW036 09/00 Q1021 NOSIG
EBLG - Bierset/Liege, Belgium
Afstand tot: OZO 60 km
Gewijzigd: 18-04-2024 13:50
Gedeeltelijk bewolkt  
Gedeeltelijk bewolkt  
   Wind: NW 11.1 km/h
Wind: NW 11.1 km/h
Temperatuur: 9°C
Voelt als: 7°C
Dauwpunt: 1°C
Vochtigheid: 58%
Barometer: 1020 hPa
Bewolking: Gedeeltelijk bewolkt
Zicht: meer dan 10 km
Bewolking: Gedeeltelijk bewolkt 3300 ft
EBLG 181150Z 32006KT 290V030 9999 SCT033 09/01 Q1020 NOSIG

Script ontwikkeld door  Saratoga-weather.org Aangepast voor de template door  Weerstation Leuven

WWW
LOGO

WWW.UITBERGEN.NET

Schild